Time;durP1;ratioP1;P1;durP2;ratioP2;P2;SDS_P1;SDS_P2;PMS_P1;PMS_P2;Temp;Humidity;BMP_temperature;BMP_pressure;BME280_temperature;BME280_humidity;BME280_pressure;Samples;Min_cycle;Max_cycle;Signal;HPM_P1;HPM_P2
2021/03/18 00:02:02;;;;;;;12.43;7.88;;;3.60;90.90;;;;;;5073518;28;20570;-79
2021/03/18 00:04:28;;;;;;;13.57;7.53;;;3.60;90.90;;;;;;5076591;28;20504;-79
2021/03/18 00:06:53;;;;;;;14.20;7.00;;;3.70;90.90;;;;;;5058860;28;20029;-79
2021/03/18 00:09:20;;;;;;;14.35;6.82;;;3.60;90.90;;;;;;5076466;28;20381;-80
2021/03/18 00:11:49;;;;;;;11.18;6.13;;;3.60;90.90;;;;;;5075720;28;20020;-80
2021/03/18 00:14:18;;;;;;;11.68;5.40;;;3.60;90.90;;;;;;5050955;28;20028;-79
2021/03/18 00:16:44;;;;;;;9.10;4.70;;;3.60;90.90;;;;;;5076112;28;20032;-80
2021/03/18 00:19:10;;;;;;;17.25;6.15;;;3.50;90.90;;;;;;5025283;28;20029;-79
2021/03/18 00:21:35;;;;;;;9.57;4.85;;;3.60;90.90;;;;;;5041833;28;20116;-80
2021/03/18 00:24:02;;;;;;;10.60;4.80;;;3.50;90.90;;;;;;5076228;28;20060;-79
2021/03/18 00:26:30;;;;;;;10.68;5.65;;;3.50;90.90;;;;;;5076307;28;20027;-79
2021/03/18 00:28:56;;;;;;;8.60;5.72;;;3.50;90.80;;;;;;5075899;28;20043;-80
2021/03/18 00:31:24;;;;;;;15.45;7.10;;;3.50;90.80;;;;;;5076070;28;20426;-80
2021/03/18 00:33:50;;;;;;;16.38;7.15;;;3.50;90.80;;;;;;5075928;28;20034;-79
2021/03/18 00:36:17;;;;;;;15.52;8.88;;;3.50;90.80;;;;;;5056076;28;20433;-79
2021/03/18 00:38:43;;;;;;;13.90;7.18;;;3.50;90.70;;;;;;5055960;28;20028;-80
2021/03/18 00:41:09;;;;;;;14.23;6.22;;;3.40;91.00;;;;;;5054860;28;20025;-80
2021/03/18 00:43:36;;;;;;;12.15;5.70;;;3.30;90.70;;;;;;5061108;28;20035;-79
2021/03/18 00:46:02;;;;;;;11.65;5.70;;;3.30;90.80;;;;;;5075082;28;20082;-80
2021/03/18 00:48:31;;;;;;;13.70;5.07;;;3.30;90.80;;;;;;5057919;28;20107;-80
2021/03/18 00:50:59;;;;;;;16.08;5.85;;;3.30;90.90;;;;;;5075478;28;20036;-80
2021/03/18 00:53:34;;;;;;;12.55;5.20;;;3.20;90.80;;;;;;5075641;28;20090;-80
2021/03/18 00:56:00;;;;;;;11.88;4.72;;;3.20;90.70;;;;;;5075657;28;20051;-80
2021/03/18 00:58:26;;;;;;;11.90;4.30;;;3.20;90.70;;;;;;5057507;28;20028;-79
2021/03/18 01:00:58;;;;;;;10.98;4.57;;;3.10;90.70;;;;;;5075351;28;20037;-80
2021/03/18 01:03:24;;;;;;;12.57;4.72;;;3.10;90.80;;;;;;5056998;28;20041;-80
2021/03/18 01:05:58;;;;;;;11.38;5.47;;;3.10;90.90;;;;;;5074599;28;20037;-79
2021/03/18 01:08:29;;;;;;;14.68;5.75;;;3.10;90.90;;;;;;5074402;28;20034;-80
2021/03/18 01:10:58;;;;;;;13.32;6.00;;;3.10;90.90;;;;;;5074396;28;20052;-80
2021/03/18 01:13:24;;;;;;;13.77;5.70;;;3.10;90.90;;;;;;5074240;28;20029;-80
2021/03/18 01:15:51;;;;;;;14.55;6.25;;;3.10;90.80;;;;;;5039823;28;20055;-80
2021/03/18 01:18:19;;;;;;;12.45;5.93;;;3.20;90.80;;;;;;5073752;28;20229;-80
2021/03/18 01:20:46;;;;;;;12.40;6.60;;;3.10;90.80;;;;;;5074268;28;20028;-80
2021/03/18 01:23:11;;;;;;;12.90;6.15;;;3.20;90.70;;;;;;5056092;28;20060;-80
2021/03/18 01:25:37;;;;;;;10.43;6.50;;;3.10;90.70;;;;;;5056526;28;20063;-80
2021/03/18 01:28:04;;;;;;;16.02;6.15;;;3.10;90.70;;;;;;5055675;28;20032;-80
2021/03/18 01:30:31;;;;;;;9.80;5.32;;;3.10;90.70;;;;;;5055954;28;20763;-80
2021/03/18 01:32:56;;;;;;;12.80;5.15;;;3.20;90.60;;;;;;5073547;28;20036;-80
2021/03/18 01:35:23;;;;;;;6.65;4.45;;;3.10;90.60;;;;;;5073873;28;20437;-80
2021/03/18 01:37:50;;;;;;;9.73;4.63;;;3.10;90.60;;;;;;5074183;28;20103;-80
2021/03/18 01:40:20;;;;;;;10.73;4.57;;;3.10;90.60;;;;;;5056058;28;20070;-80
2021/03/18 01:42:46;;;;;;;13.02;5.47;;;3.10;90.60;;;;;;5074455;28;20035;-80
2021/03/18 01:45:13;;;;;;;17.58;5.60;;;3.10;90.50;;;;;;5074849;28;20025;-80
2021/03/18 01:47:44;;;;;;;13.85;5.75;;;3.10;90.50;;;;;;5056813;28;20028;-80
2021/03/18 01:50:13;;;;;;;11.38;5.75;;;3.00;90.50;;;;;;5055904;28;20441;-80
2021/03/18 01:52:39;;;;;;;12.52;5.45;;;3.00;90.60;;;;;;5056988;28;20031;-80
2021/03/18 01:55:08;;;;;;;10.73;5.68;;;3.00;90.70;;;;;;5074569;28;20029;-81
2021/03/18 01:57:34;;;;;;;15.93;6.30;;;3.00;90.70;;;;;;5074561;28;20013;-80
2021/03/18 02:00:01;;;;;;;11.43;4.85;;;2.90;90.70;;;;;;5074345;28;20373;-80
2021/03/18 02:02:26;;;;;;;12.32;6.30;;;2.90;90.70;;;;;;5082032;28;20065;-80
2021/03/18 02:04:52;;;;;;;15.25;4.85;;;2.90;90.70;;;;;;5094325;28;20115;-80
2021/03/18 02:07:18;;;;;;;11.55;4.40;;;2.90;90.70;;;;;;5093792;28;20051;-80
2021/03/18 02:09:43;;;;;;;9.43;4.93;;;2.90;90.70;;;;;;5093550;28;20078;-80
2021/03/18 02:12:09;;;;;;;9.93;4.95;;;2.90;90.60;;;;;;5093947;28;20028;-80
2021/03/18 02:14:36;;;;;;;12.40;4.50;;;2.90;90.70;;;;;;5090064;28;20397;-80
2021/03/18 02:17:06;;;;;;;11.07;4.78;;;2.90;90.70;;;;;;5110525;28;20028;-80
2021/03/18 02:19:46;;;;;;;14.32;4.63;;;2.90;90.70;;;;;;5094627;28;20027;-80
2021/03/18 02:22:56;;;;;;;12.50;5.00;;;2.90;90.70;;;;;;5085859;28;20427;-80
2021/03/18 02:25:28;;;;;;;12.50;4.93;;;2.90;90.70;;;;;;5092746;28;20046;-80
2021/03/18 02:28:13;;;;;;;9.50;4.30;;;2.90;90.70;;;;;;5094114;28;20020;-80
2021/03/18 02:30:45;;;;;;;9.02;4.07;;;2.80;90.70;;;;;;5075719;28;20107;-80
2021/03/18 02:33:48;;;;;;;8.43;4.13;;;2.80;90.70;;;;;;5093801;28;20016;-80
2021/03/18 02:36:21;;;;;;;13.32;3.85;;;2.80;90.70;;;;;;5093959;28;20073;-80
2021/03/18 02:38:59;;;;;;;14.23;4.20;;;2.80;90.70;;;;;;5068270;28;20028;-80
2021/03/18 02:41:32;;;;;;;9.38;4.18;;;2.90;90.70;;;;;;5089292;28;20503;-80
2021/03/18 02:44:18;;;;;;;18.42;4.35;;;2.80;90.60;;;;;;5093769;28;20106;-80
2021/03/18 02:46:44;;;;;;;12.00;4.47;;;2.80;90.60;;;;;;5093279;28;20040;-80
2021/03/18 02:49:11;;;;;;;16.35;5.28;;;2.80;90.60;;;;;;5093634;28;20089;-80
2021/03/18 02:51:40;;;;;;;18.17;5.60;;;2.90;90.50;;;;;;5075586;28;20481;-80
2021/03/18 02:54:08;;;;;;;11.20;4.53;;;2.70;90.40;;;;;;5085094;28;20024;-80
2021/03/18 02:56:43;;;;;;;10.30;4.45;;;2.70;90.50;;;;;;5073230;28;20381;-80
2021/03/18 02:59:11;;;;;;;17.83;6.35;;;2.70;90.50;;;;;;5069964;28;20416;-80
2021/03/18 03:01:40;;;;;;;28.50;12.65;;;2.70;90.60;;;;;;5093376;28;20062;-80
2021/03/18 03:04:06;;;;;;;22.88;11.45;;;2.60;90.60;;;;;;5075282;28;20054;-80
2021/03/18 03:06:33;;;;;;;17.80;9.18;;;2.60;90.70;;;;;;5058771;28;20506;-80
2021/03/18 03:09:00;;;;;;;15.70;8.57;;;2.50;90.70;;;;;;5093279;28;20036;-80
2021/03/18 03:11:26;;;;;;;18.25;10.45;;;2.60;90.80;;;;;;5092890;28;20031;-80
2021/03/18 03:13:53;;;;;;;14.88;8.60;;;2.50;90.80;;;;;;5074364;28;20078;-80
2021/03/18 03:16:22;;;;;;;16.75;7.65;;;2.50;90.80;;;;;;5093349;28;20028;-80
2021/03/18 03:18:50;;;;;;;15.30;8.57;;;2.50;90.80;;;;;;5075168;28;20073;-80
2021/03/18 03:21:18;;;;;;;18.33;9.02;;;2.50;90.80;;;;;;5075144;28;20385;-80
2021/03/18 03:23:45;;;;;;;22.27;10.25;;;2.50;90.80;;;;;;5074870;28;20031;-80
2021/03/18 03:26:12;;;;;;;18.55;11.30;;;2.50;90.90;;;;;;5075136;28;20034;-80
2021/03/18 03:28:39;;;;;;;19.00;9.23;;;2.50;90.90;;;;;;5074136;28;20130;-80
2021/03/18 03:31:05;;;;;;;16.58;7.47;;;2.50;90.90;;;;;;5093428;28;20032;-80
2021/03/18 03:33:31;;;;;;;15.52;6.97;;;2.50;90.90;;;;;;5074935;28;20040;-80
2021/03/18 03:35:57;;;;;;;11.00;5.22;;;2.50;90.80;;;;;;5093236;28;20107;-80
2021/03/18 03:38:23;;;;;;;23.35;5.95;;;2.60;90.80;;;;;;5075077;28;20052;-80
2021/03/18 03:40:51;;;;;;;14.55;5.65;;;2.50;91.10;;;;;;5092950;28;20048;-80
2021/03/18 03:43:17;;;;;;;11.23;4.20;;;2.50;90.80;;;;;;5074034;28;20354;-80
2021/03/18 03:45:43;;;;;;;9.35;4.22;;;2.50;90.80;;;;;;5092930;28;20031;-80
2021/03/18 03:48:09;;;;;;;23.17;4.88;;;2.50;90.90;;;;;;5092830;28;20030;-80
2021/03/18 03:50:36;;;;;;;14.15;4.50;;;2.60;90.90;;;;;;5092835;28;20415;-80
2021/03/18 03:53:23;;;;;;;14.55;4.60;;;2.50;91.10;;;;;;5074926;28;20136;-79
2021/03/18 03:56:12;;;;;;;10.07;4.35;;;2.60;90.90;;;;;;5093131;28;20044;-80
2021/03/18 03:58:46;;;;;;;12.48;4.05;;;2.60;90.90;;;;;;5074595;28;20020;-80
2021/03/18 04:01:30;;;;;;;15.13;4.82;;;2.50;90.80;;;;;;5074564;28;20051;-80
2021/03/18 04:04:03;;;;;;;13.75;4.35;;;2.50;90.80;;;;;;5092660;28;20048;-80
2021/03/18 04:06:32;;;;;;;13.52;4.30;;;2.50;90.80;;;;;;5092780;28;20016;-80
2021/03/18 04:08:59;;;;;;;12.60;4.05;;;2.50;90.80;;;;;;5092876;28;20388;-80
2021/03/18 04:11:25;;;;;;;16.80;4.45;;;2.50;90.80;;;;;;5092786;28;20024;-80
2021/03/18 04:13:52;;;;;;;13.00;4.10;;;2.50;90.80;;;;;;5092506;28;20033;-79
2021/03/18 04:16:21;;;;;;;11.85;4.97;;;2.40;90.80;;;;;;5073759;28;20035;-80
2021/03/18 04:18:48;;;;;;;12.02;4.90;;;2.50;90.80;;;;;;5074614;28;20032;-79
2021/03/18 04:21:15;;;;;;;14.82;4.40;;;2.40;90.80;;;;;;5092764;28;20368;-80
2021/03/18 04:23:41;;;;;;;15.60;4.43;;;2.40;90.80;;;;;;5074813;28;20038;-80
2021/03/18 04:26:08;;;;;;;13.80;5.35;;;2.40;90.80;;;;;;5095393;28;20111;-80
2021/03/18 04:28:34;;;;;;;15.00;5.13;;;2.30;90.70;;;;;;5096512;28;20416;-80
2021/03/18 04:31:01;;;;;;;17.10;8.18;;;2.40;90.70;;;;;;5078029;28;20028;-80
2021/03/18 04:33:28;;;;;;;10.57;5.82;;;2.40;90.70;;;;;;5041455;28;20041;-80
2021/03/18 04:35:55;;;;;;;19.33;9.30;;;2.30;90.60;;;;;;5076091;28;20077;-80
2021/03/18 04:38:28;;;;;;;21.33;8.43;;;2.30;90.60;;;;;;5058000;28;20047;-80
2021/03/18 04:40:54;;;;;;;20.17;7.90;;;2.30;90.60;;;;;;5075935;28;20017;-80
2021/03/18 04:43:22;;;;;;;13.85;6.97;;;2.30;90.70;;;;;;5060403;28;20028;-80
2021/03/18 04:45:49;;;;;;;20.92;6.45;;;2.30;90.70;;;;;;5096075;28;20024;-80
2021/03/18 04:48:16;;;;;;;10.32;5.93;;;2.20;90.70;;;;;;5085925;28;20036;-81
2021/03/18 04:50:42;;;;;;;13.40;6.30;;;2.20;90.70;;;;;;5095345;28;20051;-80
2021/03/18 04:53:07;;;;;;;16.27;5.38;;;2.20;90.70;;;;;;5075447;28;20070;-80
2021/03/18 04:55:33;;;;;;;10.10;5.22;;;2.20;90.80;;;;;;5094250;28;20097;-80
2021/03/18 04:58:02;;;;;;;17.73;5.22;;;2.10;90.70;;;;;;5076984;28;20031;-80
2021/03/18 05:00:30;;;;;;;15.55;4.38;;;2.10;90.80;;;;;;5094989;28;20430;-80
2021/03/18 05:03:01;;;;;;;10.60;5.00;;;2.10;90.80;;;;;;5094282;28;20093;-80
2021/03/18 05:05:28;;;;;;;11.52;5.10;;;2.10;90.80;;;;;;5076853;28;20044;-80
2021/03/18 05:07:55;;;;;;;12.70;4.07;;;2.20;90.80;;;;;;5077479;28;20028;-80
2021/03/18 05:10:23;;;;;;;8.65;4.40;;;2.20;90.80;;;;;;5061031;28;20024;-80
2021/03/18 05:12:50;;;;;;;15.88;4.57;;;2.20;90.70;;;;;;5077030;28;20489;-80
2021/03/18 05:15:16;;;;;;;14.35;4.90;;;2.20;90.70;;;;;;5095263;28;20028;-80
2021/03/18 05:17:43;;;;;;;15.55;5.15;;;2.30;90.70;;;;;;5077572;28;20135;-80
2021/03/18 05:20:11;;;;;;;9.73;3.92;;;2.30;90.70;;;;;;5094341;28;20050;-80
2021/03/18 05:22:38;;;;;;;15.27;4.93;;;2.30;90.70;;;;;;5095178;28;20103;-80
2021/03/18 05:25:08;;;;;;;14.77;5.10;;;2.20;90.70;;;;;;5095101;28;20055;-80
2021/03/18 05:27:34;;;;;;;12.95;4.25;;;2.20;90.80;;;;;;5095335;28;20059;-80
2021/03/18 05:30:00;;;;;;;13.70;4.05;;;2.20;90.70;;;;;;5095031;28;20110;-80
2021/03/18 05:32:27;;;;;;;18.88;5.40;;;2.20;90.70;;;;;;5095310;28;20119;-80
2021/03/18 05:34:53;;;;;;;11.38;4.28;;;2.20;90.70;;;;;;5094612;28;20106;-80
2021/03/18 05:37:18;;;;;;;21.08;5.65;;;2.30;90.80;;;;;;5075631;28;20457;-80
2021/03/18 05:39:44;;;;;;;18.65;5.80;;;2.30;90.70;;;;;;5077085;28;20081;-80
2021/03/18 05:42:10;;;;;;;10.02;4.65;;;2.30;90.80;;;;;;5095114;28;20381;-80
2021/03/18 05:44:37;;;;;;;16.95;4.70;;;2.30;90.70;;;;;;5076806;28;20495;-80
2021/03/18 05:47:04;;;;;;;8.55;4.00;;;2.30;90.70;;;;;;5094852;28;20511;-80
2021/03/18 05:49:31;;;;;;;12.35;4.70;;;2.30;90.70;;;;;;5077005;28;20043;-80
2021/03/18 05:51:58;;;;;;;11.48;4.78;;;2.30;90.70;;;;;;5095721;28;20070;-80
2021/03/18 05:54:24;;;;;;;15.38;4.88;;;2.40;90.80;;;;;;5107246;28;20080;-80
2021/03/18 05:56:50;;;;;;;10.70;5.22;;;2.40;90.70;;;;;;5097031;28;20051;-79
2021/03/18 05:59:18;;;;;;;14.98;6.85;;;2.40;90.70;;;;;;5115629;28;20019;-80
2021/03/18 06:01:44;;;;;;;11.90;5.85;;;2.40;90.80;;;;;;5079865;28;20114;-80
2021/03/18 06:04:09;;;;;;;18.20;5.88;;;2.40;90.80;;;;;;5114987;28;20063;-80
2021/03/18 06:06:37;;;;;;;14.80;5.00;;;2.40;90.80;;;;;;5114828;28;20161;-80
2021/03/18 06:09:06;;;;;;;24.85;6.78;;;2.40;90.80;;;;;;5096690;28;20031;-80
2021/03/18 06:11:32;;;;;;;15.85;5.43;;;2.40;90.90;;;;;;5115021;28;20032;-80
2021/03/18 06:13:57;;;;;;;21.23;7.22;;;2.30;90.90;;;;;;5098481;28;20489;-80
2021/03/18 06:16:24;;;;;;;23.45;5.30;;;2.30;91.00;;;;;;5094274;28;20024;-80
2021/03/18 06:18:51;;;;;;;20.02;6.00;;;2.30;91.00;;;;;;5094145;28;20044;-80
2021/03/18 06:21:16;;;;;;;11.90;5.38;;;2.40;91.00;;;;;;5085958;28;20040;-79
2021/03/18 06:24:01;;;;;;;17.05;5.38;;;2.50;91.00;;;;;;5094413;28;20056;-80
2021/03/18 06:26:38;;;;;;;10.15;4.72;;;2.50;91.00;;;;;;5059352;28;20469;-80
2021/03/18 06:29:36;;;;;;;13.20;4.90;;;2.50;91.00;;;;;;5094099;28;20050;-81
2021/03/18 06:32:15;;;;;;;10.13;4.55;;;2.50;90.90;;;;;;5094103;28;20069;-81
2021/03/18 06:34:58;;;;;;;12.25;4.57;;;2.60;90.90;;;;;;5093789;28;20024;-81
2021/03/18 06:37:44;;;;;;;18.55;5.00;;;2.60;90.90;;;;;;5093974;28;20130;-80
2021/03/18 06:40:20;;;;;;;18.27;5.25;;;2.60;90.90;;;;;;5093875;28;20028;-81
2021/03/18 06:43:00;;;;;;;13.85;5.35;;;2.60;90.90;;;;;;5085510;28;20076;-82
2021/03/18 06:45:30;;;;;;;13.27;5.47;;;2.70;90.90;;;;;;5073530;28;20032;-81
2021/03/18 06:48:06;;;;;;;14.95;5.80;;;2.70;90.90;;;;;;5055476;28;20163;-81
2021/03/18 06:50:40;;;;;;;19.70;6.05;;;2.70;90.90;;;;;;5075404;28;20029;-81
2021/03/18 06:53:24;;;;;;;16.15;5.45;;;2.80;90.90;;;;;;5075340;28;20024;-81
2021/03/18 06:55:51;;;;;;;8.98;4.75;;;2.80;90.90;;;;;;5075687;28;20024;-81
2021/03/18 06:58:20;;;;;;;15.32;5.82;;;2.80;90.80;;;;;;5058767;28;20028;-81
2021/03/18 07:00:49;;;;;;;9.02;5.35;;;2.80;90.80;;;;;;5075191;28;20107;-81
2021/03/18 07:03:40;;;;;;;11.10;5.70;;;2.90;90.70;;;;;;5062064;28;20051;-81
2021/03/18 07:06:08;;;;;;;18.85;6.25;;;2.90;90.70;;;;;;5074223;28;20040;-81
2021/03/18 07:08:36;;;;;;;14.90;5.80;;;3.00;90.70;;;;;;5055952;28;20485;-81
2021/03/18 07:11:19;;;;;;;16.05;6.00;;;3.00;90.70;;;;;;5055053;28;20029;-81
2021/03/18 07:13:45;;;;;;;12.45;5.95;;;3.00;90.70;;;;;;5072711;28;20499;-81
2021/03/18 07:16:12;;;;;;;13.32;5.30;;;3.00;90.60;;;;;;5055027;28;20599;-81
2021/03/18 07:18:38;;;;;;;14.48;5.60;;;3.10;90.60;;;;;;5055233;28;20115;-81
2021/03/18 07:21:13;;;;;;;17.02;5.88;;;3.10;90.60;;;;;;5055126;28;20485;-81
2021/03/18 07:23:38;;;;;;;15.85;6.18;;;3.20;90.60;;;;;;5073265;28;20033;-81
2021/03/18 07:26:36;;;;;;;15.18;6.57;;;3.20;90.50;;;;;;5054975;28;20042;-81
2021/03/18 07:29:21;;;;;;;17.83;6.68;;;3.30;90.50;;;;;;5072382;28;20033;-81
2021/03/18 07:31:48;;;;;;;16.33;7.15;;;3.40;90.50;;;;;;5054751;28;20488;-81
2021/03/18 07:34:13;;;;;;;17.02;7.00;;;3.40;90.40;;;;;;5054365;28;20558;-81
2021/03/18 07:36:40;;;;;;;24.95;9.23;;;3.50;90.40;;;;;;5038512;28;20061;-81
2021/03/18 07:39:07;;;;;;;13.27;7.25;;;3.60;90.30;;;;;;5072305;28;20528;-81
2021/03/18 07:41:34;;;;;;;25.23;7.90;;;3.60;90.30;;;;;;5072908;28;20032;-81
2021/03/18 07:44:00;;;;;;;25.38;8.20;;;3.70;90.30;;;;;;5072819;28;20082;-81
2021/03/18 07:46:27;;;;;;;21.83;8.57;;;3.70;90.30;;;;;;5073203;28;20029;-81
2021/03/18 07:49:00;;;;;;;18.65;7.90;;;3.60;90.20;;;;;;5054989;28;20033;-81
2021/03/18 07:51:29;;;;;;;21.60;8.52;;;3.50;90.40;;;;;;5072824;28;20036;-81
2021/03/18 07:53:57;;;;;;;24.52;8.68;;;3.40;90.60;;;;;;5054925;28;20048;-81
2021/03/18 07:56:24;;;;;;;23.80;8.40;;;3.40;90.70;;;;;;5055349;28;20033;-81
2021/03/18 07:58:50;;;;;;;18.77;9.38;;;3.40;90.80;;;;;;5053285;28;20086;-81
2021/03/18 08:07:49;;;;;;;12.70;7.00;;;3.40;91.00;;;;;;5078739;28;20040;-81
2021/03/18 08:10:39;;;;;;;21.60;8.05;;;3.40;91.20;;;;;;5078662;28;20020;-81
2021/03/18 08:13:05;;;;;;;14.85;6.47;;;3.50;91.20;;;;;;5096874;28;20019;-81
2021/03/18 08:15:34;;;;;;;19.00;6.65;;;3.60;91.10;;;;;;5078904;28;20048;-81
2021/03/18 08:18:14;;;;;;;19.27;6.47;;;3.70;90.90;;;;;;5096642;28;20100;-81
2021/03/18 08:20:40;;;;;;;18.70;6.70;;;3.90;90.80;;;;;;5076925;28;20035;-81
2021/03/18 08:23:23;;;;;;;23.70;7.78;;;4.00;90.60;;;;;;5076421;28;20020;-82
2021/03/18 08:25:57;;;;;;;23.50;6.90;;;4.00;90.50;;;;;;5076364;28;21214;-82
2021/03/18 08:29:01;;;;;;;26.50;7.45;;;4.10;90.60;;;;;;5078078;28;20420;-82
2021/03/18 08:31:51;;;;;;;21.23;7.45;;;4.20;90.30;;;;;;5075565;28;20036;-81
2021/03/18 08:34:19;;;;;;;24.83;6.60;;;4.20;90.50;;;;;;5094198;28;20499;-81
2021/03/18 08:36:51;;;;;;;27.15;7.35;;;4.20;90.50;;;;;;5061061;28;20115;-81
2021/03/18 08:39:35;;;;;;;22.65;6.35;;;4.30;90.50;;;;;;5091787;28;20493;-81
2021/03/18 08:42:01;;;;;;;26.95;6.35;;;4.40;90.50;;;;;;5096422;28;20031;-83
2021/03/18 08:44:29;;;;;;;12.13;5.63;;;4.40;90.30;;;;;;5044988;28;20381;-82
2021/03/18 08:47:09;;;;;;;18.45;6.38;;;4.40;90.40;;;;;;5077247;28;20031;-82
2021/03/18 08:49:38;;;;;;;16.67;6.07;;;4.50;90.00;;;;;;5077858;28;20161;-81
2021/03/18 08:52:12;;;;;;;19.48;5.25;;;4.40;90.00;;;;;;5078089;28;20469;-82
2021/03/18 08:54:41;;;;;;;18.88;5.00;;;4.50;90.00;;;;;;5095807;28;20032;-81
2021/03/18 08:57:26;;;;;;;22.25;5.03;;;4.50;90.00;;;;;;5095940;28;20031;-81
2021/03/18 09:00:04;;;;;;;20.02;5.70;;;4.60;90.00;;;;;;5077796;28;20473;-81
2021/03/18 09:02:38;;;;;;;22.23;5.70;;;4.60;89.40;;;;;;5095789;28;20125;-81
2021/03/18 09:05:16;;;;;;;12.85;5.38;;;4.50;89.30;;;;;;5093643;28;20481;-81
2021/03/18 09:07:43;;;;;;;14.73;5.03;;;4.60;89.80;;;;;;5095819;28;20089;-81
2021/03/18 09:10:21;;;;;;;16.33;4.50;;;4.60;90.00;;;;;;5095273;28;20028;-81
2021/03/18 09:12:53;;;;;;;20.15;5.38;;;4.70;89.70;;;;;;5095803;28;20020;-81
2021/03/18 09:15:23;;;;;;;13.35;4.13;;;4.80;89.90;;;;;;5077571;28;20032;-81
2021/03/18 09:17:52;;;;;;;25.85;5.30;;;4.80;89.70;;;;;;5095678;28;20020;-81
2021/03/18 09:20:22;;;;;;;12.90;4.85;;;4.90;89.80;;;;;;5077560;28;20029;-82
2021/03/18 09:22:47;;;;;;;13.02;4.72;;;4.90;89.30;;;;;;5077354;28;20067;-81
2021/03/18 09:25:14;;;;;;;11.85;4.20;;;5.00;89.40;;;;;;5060868;28;20056;-81
2021/03/18 09:27:44;;;;;;;19.27;4.53;;;5.10;88.20;;;;;;5095336;28;20103;-81
2021/03/18 09:30:16;;;;;;;13.18;4.53;;;5.10;88.60;;;;;;5095346;28;20024;-81
2021/03/18 09:32:42;;;;;;;12.07;4.68;;;5.20;88.80;;;;;;5095253;28;20027;-82
2021/03/18 09:35:11;;;;;;;17.27;4.80;;;5.20;88.70;;;;;;5077195;28;20028;-81
2021/03/18 09:37:37;;;;;;;18.38;4.88;;;5.40;88.80;;;;;;5095248;28;20439;-82
2021/03/18 09:40:05;;;;;;;14.05;4.45;;;5.40;88.00;;;;;;5095078;28;20032;-82
2021/03/18 09:42:31;;;;;;;15.90;4.43;;;5.40;87.20;;;;;;5094783;28;20019;-81
2021/03/18 09:44:57;;;;;;;11.73;4.53;;;5.50;87.70;;;;;;5076986;28;20066;-82
2021/03/18 09:47:23;;;;;;;16.55;4.63;;;5.50;87.70;;;;;;5060308;28;20028;-81
2021/03/18 09:49:51;;;;;;;16.98;4.18;;;5.60;88.40;;;;;;5094919;28;20073;-81
2021/03/18 09:52:22;;;;;;;12.82;4.13;;;5.60;87.40;;;;;;5077624;28;20028;-80
2021/03/18 09:54:48;;;;;;;11.50;4.57;;;5.60;87.60;;;;;;5095764;28;20064;-79
2021/03/18 09:57:14;;;;;;;15.25;3.97;;;5.70;88.40;;;;;;5077961;28;20106;-79
2021/03/18 09:59:40;;;;;;;15.00;4.43;;;5.70;87.40;;;;;;5061456;28;20440;-79
2021/03/18 10:02:07;;;;;;;16.08;4.63;;;5.80;87.40;;;;;;5096387;28;20071;-79
2021/03/18 10:04:40;;;;;;;12.63;3.78;;;5.90;87.40;;;;;;5095618;28;20051;-79
2021/03/18 10:07:06;;;;;;;10.15;4.65;;;5.90;87.70;;;;;;5077916;28;20111;-79
2021/03/18 10:09:32;;;;;;;21.02;4.45;;;6.10;87.10;;;;;;5077670;28;20493;-80
2021/03/18 10:12:08;;;;;;;13.85;4.68;;;6.10;87.20;;;;;;5094882;28;20024;-79
2021/03/18 10:14:45;;;;;;;8.63;3.70;;;6.20;86.20;;;;;;5094652;28;20039;-79
2021/03/18 10:17:33;;;;;;;16.05;3.45;;;6.30;86.10;;;;;;5076530;28;20089;-80
2021/03/18 10:20:13;;;;;;;12.55;3.28;;;6.30;85.00;;;;;;5094348;28;20473;-79
2021/03/18 10:22:43;;;;;;;18.27;3.60;;;6.40;85.50;;;;;;5094465;28;20027;-79
2021/03/18 10:25:14;;;;;;;10.90;3.25;;;6.50;86.20;;;;;;5095364;28;20102;-80
2021/03/18 10:27:50;;;;;;;9.68;3.38;;;6.60;85.90;;;;;;5095379;28;20020;-80
2021/03/18 10:30:17;;;;;;;11.73;3.45;;;6.70;84.70;;;;;;5076949;28;20563;-80
2021/03/18 10:33:15;;;;;;;12.60;2.63;;;6.70;85.00;;;;;;5095452;28;20032;-79
2021/03/18 10:36:05;;;;;;;6.90;2.33;;;6.90;84.30;;;;;;5076604;28;20035;-81
2021/03/18 10:38:33;;;;;;;7.90;2.40;;;7.00;83.10;;;;;;5076279;28;20032;-80
2021/03/18 10:41:07;;;;;;;9.05;2.20;;;7.00;81.80;;;;;;5095429;28;20477;-80
2021/03/18 10:43:37;;;;;;;11.50;2.70;;;7.00;79.80;;;;;;5095187;28;20031;-80
2021/03/18 10:46:05;;;;;;;9.18;2.70;;;6.90;80.50;;;;;;5077027;28;20432;-80
2021/03/18 10:48:35;;;;;;;7.77;2.23;;;6.90;81.40;;;;;;5095032;28;20024;-80
2021/03/18 10:51:04;;;;;;;7.78;2.50;;;6.90;81.40;;;;;;5077253;28;20127;-80
2021/03/18 10:53:34;;;;;;;12.18;3.20;;;6.90;81.10;;;;;;5094707;28;20119;-80
2021/03/18 10:56:01;;;;;;;10.38;2.30;;;6.90;80.80;;;;;;5094777;28;20066;-80
2021/03/18 10:58:27;;;;;;;10.73;2.58;;;6.90;81.30;;;;;;5076647;28;20028;-79
2021/03/18 11:01:04;;;;;;;11.48;2.65;;;7.00;81.30;;;;;;5094688;28;20017;-79
2021/03/18 11:03:35;;;;;;;9.60;2.40;;;7.00;80.90;;;;;;5094245;28;20100;-80
2021/03/18 11:06:13;;;;;;;8.60;2.30;;;7.00;81.10;;;;;;5094029;28;20036;-80
2021/03/18 11:08:42;;;;;;;9.40;2.60;;;7.10;81.80;;;;;;5075819;28;20036;-80
2021/03/18 11:11:16;;;;;;;7.78;2.00;;;7.10;81.50;;;;;;5094041;28;20522;-80
2021/03/18 11:13:43;;;;;;;6.93;2.40;;;7.20;81.70;;;;;;5075527;28;20032;-80
2021/03/18 11:16:10;;;;;;;10.60;3.03;;;7.40;81.50;;;;;;5075556;28;20111;-80
2021/03/18 11:18:43;;;;;;;11.25;3.17;;;7.50;80.80;;;;;;5093581;28;20047;-80
2021/03/18 11:21:23;;;;;;;15.95;3.20;;;7.60;80.20;;;;;;5075810;28;20481;-80
2021/03/18 11:23:51;;;;;;;11.48;2.75;;;7.70;78.70;;;;;;5075384;28;20050;-77
2021/03/18 11:26:20;;;;;;;9.93;2.67;;;7.60;78.40;;;;;;5075626;28;20025;-77
2021/03/18 11:28:59;;;;;;;11.02;2.83;;;7.60;78.90;;;;;;5093653;28;20545;-77
2021/03/18 11:31:27;;;;;;;7.47;2.15;;;7.70;79.20;;;;;;5093187;28;20027;-77
2021/03/18 11:33:54;;;;;;;8.70;2.53;;;7.70;78.60;;;;;;5075207;28;20068;-77
2021/03/18 11:36:20;;;;;;;13.25;3.22;;;7.70;78.60;;;;;;5061978;28;20500;-78
2021/03/18 11:38:46;;;;;;;11.60;2.90;;;7.60;78.80;;;;;;5079394;28;20031;-77
2021/03/18 11:41:15;;;;;;;11.90;3.00;;;7.60;79.60;;;;;;5097138;28;20024;-80
2021/03/18 11:43:41;;;;;;;9.95;2.50;;;7.60;80.10;;;;;;5097255;28;20096;-80
2021/03/18 11:46:07;;;;;;;10.27;2.45;;;7.70;80.40;;;;;;5102127;28;20027;-80
2021/03/18 11:48:34;;;;;;;12.75;2.50;;;7.70;79.60;;;;;;5097521;28;20392;-80
2021/03/18 11:51:00;;;;;;;7.22;2.38;;;7.70;79.90;;;;;;5078834;28;20065;-80
2021/03/18 11:53:26;;;;;;;13.77;3.25;;;7.80;80.40;;;;;;5097411;28;20028;-80
2021/03/18 11:55:53;;;;;;;12.00;2.83;;;7.80;80.10;;;;;;5097297;28;20073;-80
2021/03/18 11:58:19;;;;;;;9.82;2.53;;;7.80;80.20;;;;;;5097031;28;20107;-78
2021/03/18 12:00:44;;;;;;;12.05;2.90;;;7.90;79.90;;;;;;5097056;28;20020;-78
2021/03/18 12:03:12;;;;;;;12.27;3.08;;;8.00;80.20;;;;;;5079045;28;20051;-78
2021/03/18 12:05:39;;;;;;;9.65;2.92;;;8.10;79.70;;;;;;5097185;28;20078;-78
2021/03/18 12:08:05;;;;;;;10.13;2.92;;;8.10;79.80;;;;;;5078790;28;20380;-78
2021/03/18 12:10:31;;;;;;;9.05;2.67;;;8.20;78.70;;;;;;5096960;28;20035;-78
2021/03/18 12:12:57;;;;;;;14.27;3.45;;;8.30;79.30;;;;;;5096989;28;20361;-78
2021/03/18 12:15:23;;;;;;;12.98;2.90;;;8.30;78.30;;;;;;5078709;28;20041;-78
2021/03/18 12:17:49;;;;;;;17.08;3.90;;;8.30;78.20;;;;;;5096746;28;20031;-78
2021/03/18 12:20:17;;;;;;;16.55;2.95;;;8.30;78.10;;;;;;5096834;28;20036;-78
2021/03/18 12:22:44;;;;;;;12.95;3.15;;;8.20;76.80;;;;;;5096596;28;20024;-80
2021/03/18 12:25:17;;;;;;;15.98;2.95;;;8.10;77.80;;;;;;5096694;28;20029;-80
2021/03/18 12:27:44;;;;;;;9.43;3.05;;;8.20;78.80;;;;;;5078140;28;20473;-80
2021/03/18 12:30:15;;;;;;;11.38;3.05;;;8.30;78.90;;;;;;5078276;28;20031;-80
2021/03/18 12:32:42;;;;;;;13.70;3.47;;;8.50;78.70;;;;;;5096467;28;20077;-79
2021/03/18 12:35:10;;;;;;;14.95;3.67;;;8.50;78.10;;;;;;5061725;28;20053;-80
2021/03/18 12:37:35;;;;;;;12.93;3.15;;;8.60;78.10;;;;;;5061948;28;20114;-80
2021/03/18 12:40:03;;;;;;;11.85;2.92;;;8.60;77.70;;;;;;5096568;28;20161;-80
2021/03/18 12:42:28;;;;;;;13.68;2.60;;;8.60;77.90;;;;;;5096213;28;20053;-80
2021/03/18 12:44:54;;;;;;;14.88;3.33;;;8.70;77.90;;;;;;5077986;28;20028;-80
2021/03/18 12:47:20;;;;;;;10.63;3.03;;;8.70;77.50;;;;;;5077459;28;20024;-80
2021/03/18 12:49:45;;;;;;;16.95;3.30;;;8.70;76.10;;;;;;5095841;28;20036;-80
2021/03/18 12:52:14;;;;;;;20.75;3.53;;;8.60;74.50;;;;;;5060156;28;20086;-79
2021/03/18 12:54:40;;;;;;;16.57;2.90;;;8.50;75.70;;;;;;5068611;28;20048;-79
2021/03/18 12:57:06;;;;;;;18.35;3.20;;;8.50;75.50;;;;;;5077179;28;20055;-80
2021/03/18 12:59:32;;;;;;;17.25;3.53;;;8.50;76.30;;;;;;5096181;28;20488;-81
2021/03/18 13:01:57;;;;;;;15.85;3.70;;;8.50;76.80;;;;;;5077881;28;20036;-82
2021/03/18 13:04:24;;;;;;;15.27;3.50;;;8.40;75.90;;;;;;5095911;28;20047;-82
2021/03/18 13:06:52;;;;;;;13.43;4.38;;;8.30;76.20;;;;;;5095765;28;20141;-82
2021/03/18 13:09:22;;;;;;;16.87;4.40;;;8.10;77.30;;;;;;5095778;28;20028;-81